createdAt,value
2023-03-08T00:00:57.704Z,4.49
2023-03-08T00:03:30.406Z,4.51
2023-03-08T00:06:08.296Z,4.50
2023-03-08T00:08:40.837Z,4.54
2023-03-08T00:11:13.174Z,4.51
2023-03-08T00:13:45.989Z,4.51
2023-03-08T00:16:18.706Z,4.52
2023-03-08T00:18:50.596Z,4.51
2023-03-08T00:21:23.703Z,4.54
2023-03-08T00:23:55.578Z,4.51
2023-03-08T00:26:27.976Z,4.55
2023-03-08T00:28:59.838Z,4.54
2023-03-08T00:31:35.883Z,4.57
2023-03-08T00:34:08.201Z,4.55
2023-03-08T00:36:41.099Z,4.54
2023-03-08T00:39:14.994Z,4.56
2023-03-08T00:41:47.893Z,4.56
2023-03-08T00:44:20.999Z,4.52
2023-03-08T00:46:54.964Z,4.56
2023-03-08T00:49:27.176Z,4.53
2023-03-08T00:51:59.879Z,4.51
2023-03-08T00:54:32.541Z,4.48
2023-03-08T00:57:04.679Z,4.54
2023-03-08T00:59:38.035Z,4.62
2023-03-08T01:02:10.951Z,4.52
2023-03-08T01:04:45.365Z,4.52
2023-03-08T01:07:19.717Z,4.64
2023-03-08T01:12:48.637Z,4.70
2023-03-08T01:15:20.913Z,4.74
2023-03-08T01:17:52.771Z,4.72
2023-03-08T01:20:25.470Z,4.74
2023-03-08T01:22:57.651Z,4.80
2023-03-08T01:25:30.623Z,4.79
2023-03-08T01:28:03.068Z,4.82
2023-03-08T01:30:35.336Z,4.73
2023-03-08T01:33:09.075Z,4.79
2023-03-08T01:35:41.759Z,4.73
2023-03-08T01:38:13.596Z,4.79
2023-03-08T01:40:46.308Z,4.70
2023-03-08T01:43:30.347Z,4.70
2023-03-08T01:46:34.516Z,4.62
2023-03-08T01:49:34.208Z,4.52
2023-03-08T01:52:32.623Z,4.55
2023-03-08T01:55:10.814Z,4.62
2023-03-08T01:57:50.014Z,4.63
2023-03-08T02:00:27.303Z,4.59
2023-03-08T02:03:07.490Z,4.55
2023-03-08T02:05:44.532Z,4.57
2023-03-08T02:08:23.458Z,4.64
2023-03-08T02:10:58.168Z,4.58
2023-03-08T02:13:31.502Z,4.66
2023-03-08T02:16:06.912Z,4.62
2023-03-08T02:19:02.033Z,4.61
2023-03-08T02:21:35.333Z,4.62
2023-03-08T02:24:20.421Z,4.52
2023-03-08T02:27:05.104Z,4.52
2023-03-08T02:29:39.946Z,4.42
2023-03-08T02:32:13.619Z,4.37
2023-03-08T02:37:42.550Z,4.46
2023-03-08T02:40:15.035Z,4.67
2023-03-08T02:42:47.008Z,4.77
2023-03-08T02:45:19.346Z,4.69
2023-03-08T02:47:51.217Z,4.74
2023-03-08T02:50:24.199Z,4.85
2023-03-08T02:52:56.125Z,4.95
2023-03-08T02:55:28.509Z,4.95
2023-03-08T02:58:00.905Z,4.95
2023-03-08T03:00:34.021Z,5.06
2023-03-08T03:03:06.917Z,5.14
2023-03-08T03:05:46.412Z,5.19
2023-03-08T03:08:24.838Z,5.24
2023-03-08T03:11:00.123Z,5.29
2023-03-08T03:13:32.014Z,5.31
2023-03-08T03:16:11.046Z,5.34
2023-03-08T03:18:43.447Z,5.45
2023-03-08T03:21:15.845Z,5.42
2023-03-08T03:23:48.188Z,5.47
2023-03-08T03:26:25.553Z,5.55
2023-03-08T03:29:00.239Z,5.57
2023-03-08T03:31:36.821Z,5.64
2023-03-08T03:34:09.398Z,5.67
2023-03-08T03:36:42.190Z,5.63
2023-03-08T03:39:14.639Z,5.72
2023-03-08T03:41:48.009Z,5.71
2023-03-08T03:44:20.333Z,5.74
2023-03-08T03:46:54.802Z,5.73
2023-03-08T03:49:30.750Z,5.62
2023-03-08T03:52:03.403Z,5.21
2023-03-08T03:54:43.083Z,4.78
2023-03-08T03:57:15.452Z,4.70
2023-03-08T03:59:48.918Z,4.48
2023-03-08T04:02:21.385Z,4.42
2023-03-08T04:04:59.130Z,4.48
2023-03-08T04:07:35.262Z,4.72
2023-03-08T04:10:07.865Z,4.83
2023-03-08T04:12:42.782Z,4.72
2023-03-08T04:15:15.008Z,4.49
2023-03-08T04:17:47.483Z,4.54
2023-03-08T04:20:20.145Z,4.43
2023-03-08T04:22:59.547Z,4.33
2023-03-08T04:25:38.339Z,4.29
2023-03-08T04:28:12.255Z,4.29
2023-03-08T04:30:46.408Z,4.17
2023-03-08T04:33:19.949Z,4.19
2023-03-08T04:35:54.366Z,4.27
2023-03-08T04:38:29.047Z,4.32
2023-03-08T04:41:12.762Z,4.31
2023-03-08T04:44:02.008Z,4.37
2023-03-08T04:46:40.505Z,4.44
2023-03-08T04:49:13.873Z,4.41
2023-03-08T04:51:49.717Z,4.48
2023-03-08T04:54:22.051Z,4.51
2023-03-08T04:56:59.538Z,4.55
2023-03-08T04:59:31.819Z,4.55
2023-03-08T05:02:06.621Z,4.53
2023-03-08T05:04:41.066Z,4.50
2023-03-08T05:07:12.980Z,4.46
2023-03-08T05:09:45.248Z,4.69
2023-03-08T05:12:19.141Z,4.36
2023-03-08T05:15:01.384Z,4.62
2023-03-08T05:17:33.506Z,4.68
2023-03-08T05:20:08.085Z,5.04
2023-03-08T05:22:57.315Z,5.23
2023-03-08T05:25:35.381Z,5.15
2023-03-08T05:28:07.936Z,5.22
2023-03-08T05:30:40.853Z,5.10
2023-03-08T05:33:12.773Z,5.00
2023-03-08T05:35:53.945Z,5.16
2023-03-08T05:38:27.979Z,5.13
2023-03-08T05:41:02.945Z,4.82
2023-03-08T05:43:35.942Z,4.79
2023-03-08T05:46:19.734Z,4.69
2023-03-08T05:48:53.145Z,4.73
2023-03-08T05:51:26.192Z,4.74
2023-03-08T05:53:59.020Z,4.75
2023-03-08T05:56:31.521Z,4.49
2023-03-08T05:59:09.956Z,4.56
2023-03-08T06:01:42.386Z,4.58
2023-03-08T06:04:24.588Z,4.60
2023-03-08T06:06:57.234Z,4.51
2023-03-08T06:09:34.634Z,4.57
2023-03-08T06:12:08.017Z,4.51
2023-03-08T06:14:39.947Z,4.46
2023-03-08T06:17:12.911Z,4.62
2023-03-08T06:19:49.122Z,4.66
2023-03-08T06:22:22.644Z,4.77
2023-03-08T06:24:54.911Z,4.79
2023-03-08T06:27:34.556Z,4.86
2023-03-08T06:30:11.758Z,4.75
2023-03-08T06:32:44.244Z,4.74
2023-03-08T06:35:16.399Z,4.84
2023-03-08T06:37:54.391Z,5.15
2023-03-08T06:40:26.505Z,4.89
2023-03-08T06:42:59.261Z,4.76
2023-03-08T06:45:31.214Z,4.76
2023-03-08T06:48:03.501Z,4.97
2023-03-08T06:50:35.831Z,5.60
2023-03-08T06:53:09.240Z,7.35
2023-03-08T06:55:50.792Z,5.87
2023-03-08T06:58:23.496Z,5.59
2023-03-08T07:00:55.829Z,5.42
2023-03-08T07:03:28.490Z,5.37
2023-03-08T07:06:02.514Z,5.33
2023-03-08T07:08:36.577Z,5.12
2023-03-08T07:11:09.884Z,4.84
2023-03-08T07:13:42.211Z,4.91
2023-03-08T07:16:14.714Z,5.17
2023-03-08T07:18:47.091Z,5.14
2023-03-08T07:21:19.024Z,5.16
2023-03-08T07:23:53.405Z,5.26
2023-03-08T07:26:25.303Z,5.16
2023-03-08T07:28:58.216Z,4.92
2023-03-08T07:31:30.828Z,5.03
2023-03-08T07:34:04.961Z,5.07
2023-03-08T07:36:38.106Z,5.21
2023-03-08T07:39:10.361Z,5.31
2023-03-08T07:41:42.682Z,5.53
2023-03-08T07:44:14.960Z,5.56
2023-03-08T07:46:47.348Z,5.49
2023-03-08T07:49:19.626Z,6.20
2023-03-08T07:51:53.245Z,6.59
2023-03-08T07:54:25.858Z,7.03
2023-03-08T07:56:57.740Z,7.81
2023-03-08T07:59:30.359Z,8.25
2023-03-08T08:02:02.222Z,8.48
2023-03-08T08:04:36.278Z,8.78
2023-03-08T08:07:14.353Z,9.01
2023-03-08T08:09:46.638Z,9.19
2023-03-08T08:12:19.058Z,9.27
2023-03-08T08:14:54.649Z,9.31
2023-03-08T08:17:26.845Z,9.33
2023-03-08T08:20:00.042Z,9.31
2023-03-08T08:22:34.306Z,9.24
2023-03-08T08:25:08.347Z,9.36
2023-03-08T08:27:40.328Z,9.32
2023-03-08T08:30:16.657Z,9.36
2023-03-08T08:32:48.713Z,9.53
2023-03-08T08:35:22.749Z,9.54
2023-03-08T08:37:56.156Z,9.60
2023-03-08T08:40:28.557Z,9.69
2023-03-08T08:43:01.601Z,9.84
2023-03-08T08:45:33.910Z,9.75
2023-03-08T08:48:06.065Z,9.99
2023-03-08T08:50:42.855Z,9.95
2023-03-08T08:53:15.510Z,9.91
2023-03-08T08:55:48.163Z,9.92
2023-03-08T08:58:20.145Z,9.92
2023-03-08T09:00:52.438Z,9.96
2023-03-08T09:03:24.310Z,10.06
2023-03-08T09:05:59.259Z,10.13
2023-03-08T09:08:31.149Z,10.24
2023-03-08T09:11:09.107Z,10.35
2023-03-08T09:13:42.322Z,10.47
2023-03-08T09:16:20.270Z,10.51
2023-03-08T09:18:53.323Z,10.55
2023-03-08T09:21:27.756Z,10.56
2023-03-08T09:24:03.631Z,10.49
2023-03-08T09:26:36.740Z,10.72
2023-03-08T09:29:08.669Z,10.51
2023-03-08T09:31:43.962Z,10.59
2023-03-08T09:34:16.443Z,10.55
2023-03-08T09:36:48.341Z,10.51
2023-03-08T09:39:20.954Z,10.54
2023-03-08T09:42:21.024Z,10.54
2023-03-08T09:45:07.689Z,10.50
2023-03-08T09:47:54.401Z,10.72
2023-03-08T09:50:43.647Z,10.96
2023-03-08T09:53:24.665Z,10.83
2023-03-08T09:56:04.476Z,10.87
2023-03-08T09:59:01.437Z,10.84
2023-03-08T10:01:56.714Z,10.86
2023-03-08T10:05:02.486Z,10.96
2023-03-08T10:07:49.909Z,10.80
2023-03-08T10:10:47.913Z,10.79
2023-03-08T10:13:42.650Z,10.87
2023-03-08T10:16:27.890Z,10.95
2023-03-08T10:19:02.748Z,10.83
2023-03-08T10:21:39.257Z,10.85
2023-03-08T10:24:26.603Z,11.00
2023-03-08T10:27:17.177Z,11.15
2023-03-08T10:30:00.871Z,11.05
2023-03-08T10:32:33.654Z,11.19
2023-03-08T10:35:06.290Z,11.28
2023-03-08T10:40:30.948Z,11.21
2023-03-08T10:43:07.030Z,11.34
2023-03-08T10:45:40.060Z,11.19
2023-03-08T10:48:31.128Z,11.26
2023-03-08T10:51:06.522Z,11.21
2023-03-08T10:53:39.700Z,11.03
2023-03-08T10:56:44.891Z,10.98
2023-03-08T10:59:39.953Z,10.96
2023-03-08T11:02:30.360Z,10.90
2023-03-08T11:05:04.414Z,10.78
2023-03-08T11:07:36.716Z,10.69
2023-03-08T11:10:21.881Z,10.84
2023-03-08T11:13:25.907Z,10.76
2023-03-08T11:16:19.067Z,10.89
2023-03-08T11:19:27.960Z,10.83
2023-03-08T11:30:22.465Z,11.13
2023-03-08T11:33:35.485Z,11.20
2023-03-08T11:36:19.428Z,11.31
2023-03-08T11:42:42.529Z,12.05
2023-03-08T11:45:26.830Z,12.15
2023-03-08T11:51:45.141Z,12.10
2023-03-08T11:55:01.110Z,12.03
2023-03-08T11:58:40.123Z,12.29
2023-03-08T12:02:05.228Z,12.29
2023-03-08T12:04:46.909Z,12.44
2023-03-08T12:07:59.805Z,12.47
2023-03-08T12:11:05.900Z,12.70
2023-03-08T12:13:47.043Z,12.68
2023-03-08T12:16:27.442Z,12.90
2023-03-08T12:19:15.858Z,12.83
2023-03-08T12:22:12.435Z,12.77
2023-03-08T12:25:16.879Z,12.94
2023-03-08T12:34:38.574Z,13.08
2023-03-08T12:37:31.197Z,13.03
2023-03-08T12:40:28.313Z,12.89
2023-03-08T12:49:34.227Z,13.01
2023-03-08T12:52:29.399Z,12.95
2023-03-08T12:55:31.880Z,12.93
2023-03-08T12:58:26.042Z,12.78
2023-03-08T13:01:06.534Z,12.85
2023-03-08T13:03:42.132Z,12.94
2023-03-08T13:07:08.156Z,12.98
2023-03-08T13:10:20.918Z,12.95
2023-03-08T13:13:20.453Z,12.97
2023-03-08T13:16:16.183Z,13.08
2023-03-08T13:22:20.888Z,13.17
2023-03-08T13:25:08.232Z,13.25
2023-03-08T13:28:08.749Z,13.33
2023-03-08T13:30:52.644Z,13.33
2023-03-08T13:33:29.932Z,13.40
2023-03-08T13:36:22.463Z,13.69
2023-03-08T13:39:01.494Z,13.65
2023-03-08T13:41:46.472Z,13.67
2023-03-08T13:44:28.033Z,13.57
2023-03-08T13:47:35.765Z,13.73
2023-03-08T13:50:08.624Z,13.66
2023-03-08T13:52:42.525Z,13.64
2023-03-08T13:55:38.957Z,13.72
2023-03-08T13:58:27.718Z,13.72
2023-03-08T14:01:26.469Z,13.69
2023-03-08T14:03:59.113Z,13.72
2023-03-08T14:06:36.103Z,13.70
2023-03-08T14:09:10.420Z,13.82
2023-03-08T14:11:43.592Z,13.93
2023-03-08T14:17:33.438Z,14.02
2023-03-08T14:23:24.372Z,14.07
2023-03-08T14:25:59.352Z,13.99
2023-03-08T14:28:41.878Z,14.02
2023-03-08T14:31:29.789Z,13.94
2023-03-08T14:34:04.032Z,13.93
2023-03-08T14:36:37.286Z,14.10
2023-03-08T14:39:18.723Z,13.99
2023-03-08T14:41:53.345Z,14.06
2023-03-08T14:44:54.328Z,14.10
2023-03-08T14:47:38.943Z,14.06
2023-03-08T14:50:34.133Z,14.05
2023-03-08T14:53:35.537Z,14.05
2023-03-08T14:56:27.202Z,14.00
2023-03-08T14:59:05.404Z,13.90
2023-03-08T15:01:39.972Z,13.90
2023-03-08T15:04:24.788Z,13.98
2023-03-08T15:06:57.804Z,13.97
2023-03-08T15:09:32.042Z,13.96
2023-03-08T15:12:04.793Z,13.94
2023-03-08T15:14:37.231Z,13.95
2023-03-08T15:17:09.311Z,13.92
2023-03-08T15:19:43.229Z,13.88
2023-03-08T15:22:16.867Z,14.03
2023-03-08T15:24:50.053Z,14.14
2023-03-08T15:27:21.968Z,13.99
2023-03-08T15:29:55.269Z,13.81
2023-03-08T15:32:27.175Z,13.76
2023-03-08T15:35:01.008Z,13.73
2023-03-08T15:37:32.931Z,13.63
2023-03-08T15:40:11.100Z,13.63
2023-03-08T15:42:43.865Z,13.49
2023-03-08T15:45:16.243Z,13.44
2023-03-08T15:48:08.241Z,13.18
2023-03-08T15:50:40.849Z,12.94
2023-03-08T15:53:29.646Z,12.80
2023-03-08T15:56:07.281Z,12.68
2023-03-08T15:59:01.931Z,12.61
2023-03-08T16:01:33.941Z,12.67
2023-03-08T16:04:07.131Z,12.71
2023-03-08T16:06:41.967Z,12.81
2023-03-08T16:09:13.813Z,12.76
2023-03-08T16:11:48.133Z,12.73
2023-03-08T16:14:21.528Z,12.70
2023-03-08T16:16:53.889Z,12.71
2023-03-08T16:19:26.677Z,12.72
2023-03-08T16:21:58.549Z,12.67
2023-03-08T16:24:32.660Z,12.62
2023-03-08T16:27:05.127Z,12.59
2023-03-08T16:29:39.879Z,12.59
2023-03-08T16:35:09.170Z,12.51
2023-03-08T16:37:42.864Z,12.46
2023-03-08T16:40:15.514Z,12.49
2023-03-08T16:42:52.282Z,12.47
2023-03-08T16:45:57.846Z,12.39
2023-03-08T16:48:31.755Z,12.25
2023-03-08T16:51:03.920Z,12.16
2023-03-08T16:53:58.646Z,12.00
2023-03-08T16:56:31.021Z,11.96
2023-03-08T16:59:04.015Z,11.82
2023-03-08T17:04:29.144Z,11.61
2023-03-08T17:07:04.724Z,11.43
2023-03-08T17:09:58.936Z,11.39
2023-03-08T17:12:31.873Z,11.37
2023-03-08T17:15:04.853Z,11.32
2023-03-08T17:17:40.137Z,11.28
2023-03-08T17:20:14.008Z,11.29
2023-03-08T17:22:49.358Z,11.27
2023-03-08T17:25:22.032Z,11.25
2023-03-08T17:27:54.796Z,11.21
2023-03-08T17:30:26.630Z,11.25
2023-03-08T17:32:59.663Z,11.28
2023-03-08T17:35:32.056Z,11.21
2023-03-08T17:38:05.209Z,11.29
2023-03-08T17:40:40.304Z,11.26
2023-03-08T17:43:13.737Z,11.26
2023-03-08T17:48:50.726Z,11.47
2023-03-08T17:54:20.713Z,11.26
2023-03-08T17:56:53.474Z,11.27
2023-03-08T17:59:25.869Z,11.23
2023-03-08T18:02:17.913Z,11.18
2023-03-08T18:04:52.218Z,11.22
2023-03-08T18:07:27.624Z,11.23
2023-03-08T18:10:02.406Z,11.36
2023-03-08T18:12:34.288Z,11.37
2023-03-08T18:15:09.456Z,11.48
2023-03-08T18:17:41.501Z,11.56
2023-03-08T18:20:14.795Z,11.64
2023-03-08T18:22:47.668Z,11.74
2023-03-08T18:25:20.653Z,11.98
2023-03-08T18:27:52.977Z,12.19
2023-03-08T18:30:25.441Z,12.18
2023-03-08T18:32:58.231Z,12.28
2023-03-08T18:35:31.304Z,12.22
2023-03-08T18:38:03.927Z,12.28
2023-03-08T18:40:38.584Z,12.42
2023-03-08T18:43:10.906Z,12.47
2023-03-08T18:45:53.820Z,12.53
2023-03-08T18:48:26.621Z,12.54
2023-03-08T18:51:00.997Z,12.55
2023-03-08T18:53:34.415Z,12.65
2023-03-08T18:56:07.521Z,12.66
2023-03-08T18:58:39.848Z,12.75
2023-03-08T19:01:15.160Z,12.70
2023-03-08T19:03:49.344Z,12.69
2023-03-08T19:06:21.247Z,12.63
2023-03-08T19:09:17.499Z,12.45
2023-03-08T19:11:50.297Z,12.46
2023-03-08T19:14:42.197Z,12.42
2023-03-08T19:17:16.343Z,12.68
2023-03-08T19:19:49.984Z,12.67
2023-03-08T19:22:21.840Z,12.70
2023-03-08T19:24:54.553Z,12.86
2023-03-08T19:27:26.820Z,12.89
2023-03-08T19:29:59.531Z,13.26
2023-03-08T19:32:32.711Z,13.33
2023-03-08T19:35:06.396Z,13.30
2023-03-08T19:37:43.083Z,13.42
2023-03-08T19:40:15.477Z,13.42
2023-03-08T19:43:29.929Z,13.50
2023-03-08T19:46:02.832Z,13.52
2023-03-08T19:48:35.379Z,13.35
2023-03-08T19:51:08.073Z,13.35
2023-03-08T19:53:42.195Z,13.39
2023-03-08T19:56:17.734Z,13.46
2023-03-08T19:58:50.116Z,13.59
2023-03-08T20:01:22.908Z,13.68
2023-03-08T20:03:56.201Z,13.71
2023-03-08T20:06:36.734Z,13.83
2023-03-08T20:09:11.877Z,13.76
2023-03-08T20:11:44.213Z,13.87
2023-03-08T20:14:18.084Z,13.95
2023-03-08T20:16:52.167Z,13.92
2023-03-08T20:19:24.164Z,13.95
2023-03-08T20:21:56.935Z,13.97
2023-03-08T20:24:29.217Z,13.94
2023-03-08T20:27:01.717Z,14.15
2023-03-08T20:29:34.983Z,14.00
2023-03-08T20:32:07.196Z,14.06
2023-03-08T20:34:40.526Z,14.06
2023-03-08T20:37:12.778Z,14.13
2023-03-08T20:39:45.504Z,14.16
2023-03-08T20:42:17.771Z,14.16
2023-03-08T20:44:50.581Z,14.11
2023-03-08T20:47:22.815Z,14.15
2023-03-08T20:49:55.536Z,14.28
2023-03-08T20:52:27.444Z,14.23
2023-03-08T20:55:00.220Z,14.21
2023-03-08T20:57:32.097Z,14.27
2023-03-08T21:02:59.431Z,14.25
2023-03-08T21:05:36.430Z,14.20
2023-03-08T21:08:08.569Z,14.21
2023-03-08T21:10:42.063Z,14.13
2023-03-08T21:13:14.137Z,14.10
2023-03-08T21:15:47.573Z,14.21
2023-03-08T21:18:19.617Z,14.14
2023-03-08T21:20:52.531Z,14.13
2023-03-08T21:23:25.405Z,14.18
2023-03-08T21:26:00.854Z,14.18
2023-03-08T21:28:33.844Z,14.16
2023-03-08T21:31:11.088Z,14.17
2023-03-08T21:33:44.260Z,14.34
2023-03-08T21:36:17.388Z,14.30
2023-03-08T21:38:54.199Z,14.29
2023-03-08T21:41:31.029Z,14.29
2023-03-08T21:44:06.101Z,14.07
2023-03-08T21:46:41.124Z,13.73
2023-03-08T21:49:27.338Z,13.45
2023-03-08T21:52:00.633Z,13.25
2023-03-08T21:54:35.958Z,13.00
2023-03-08T21:57:07.839Z,12.69
2023-03-08T21:59:40.561Z,12.55
2023-03-08T22:02:12.493Z,12.46
2023-03-08T22:04:45.220Z,12.59
2023-03-08T22:07:17.142Z,12.51
2023-03-08T22:10:14.014Z,12.47
2023-03-08T22:12:47.715Z,12.37
2023-03-08T22:15:19.708Z,12.45
2023-03-08T22:17:54.385Z,12.43
2023-03-08T22:20:27.455Z,12.53
2023-03-08T22:23:00.285Z,12.66
2023-03-08T22:25:32.714Z,12.83
2023-03-08T22:28:05.698Z,12.97
2023-03-08T22:30:41.217Z,13.02
2023-03-08T22:33:13.958Z,13.13
2023-03-08T22:35:47.871Z,13.04
2023-03-08T22:38:21.350Z,13.08
2023-03-08T22:41:18.704Z,13.14
2023-03-08T22:43:51.982Z,13.08
2023-03-08T22:46:29.282Z,13.21
2023-03-08T22:49:04.936Z,13.28
2023-03-08T22:51:39.447Z,13.33
2023-03-08T22:54:17.868Z,13.38
2023-03-08T22:56:52.712Z,13.26
2023-03-08T22:59:25.636Z,13.31
2023-03-08T23:01:58.437Z,13.41
2023-03-08T23:04:33.852Z,13.47
2023-03-08T23:07:06.177Z,13.49
2023-03-08T23:09:39.082Z,13.52
2023-03-08T23:12:13.489Z,13.53
2023-03-08T23:14:45.767Z,13.55
2023-03-08T23:17:18.039Z,13.70
2023-03-08T23:19:50.663Z,13.68
2023-03-08T23:22:23.418Z,13.65
2023-03-08T23:24:55.293Z,13.65
2023-03-08T23:27:28.455Z,13.73
2023-03-08T23:30:22.782Z,13.70
2023-03-08T23:32:55.238Z,13.71
2023-03-08T23:35:27.602Z,13.78
2023-03-08T23:40:55.508Z,13.77
2023-03-08T23:43:27.369Z,13.68
2023-03-08T23:46:00.184Z,13.55
2023-03-08T23:48:32.504Z,13.63
2023-03-08T23:51:08.203Z,13.37
2023-03-08T23:53:41.522Z,12.85
2023-03-08T23:56:27.407Z,12.31
2023-03-08T23:59:02.873Z,12.15
